Time;durP1;ratioP1;P1;durP2;ratioP2;P2;SDS_P1;SDS_P2;PMS_P1;PMS_P2;Temp;Humidity;BMP_temperature;BMP_pressure;BME280_temperature;BME280_humidity;BME280_pressure;Samples;Min_cycle;Max_cycle;Signal;HPM_P1;HPM_P2
2023/09/17 00:01:04;;;;;;;60.63;29.88;;;;;;;;;;5078338;28;20463;-87
2023/09/17 00:03:29;;;;;;;70.32;31.73;;;;;;;;;;5077235;28;20021;-87
2023/09/17 00:05:55;;;;;;;68.20;30.45;;;;;;;;;;5076341;28;20095;-87
2023/09/17 00:08:20;;;;;;;56.90;30.10;;;;;;;;;;5074641;28;20498;-87
2023/09/17 00:10:45;;;;;;;62.47;30.85;;;;;;;;;;5067810;28;20302;-87
2023/09/17 00:13:13;;;;;;;63.95;31.02;;;;;;;;;;5074725;28;20029;-87
2023/09/17 00:15:38;;;;;;;63.88;31.20;;;;;;;;;;5055779;28;20056;-87
2023/09/17 00:18:04;;;;;;;53.33;29.73;;;;;;;;;;5062588;28;20074;-87
2023/09/17 00:20:29;;;;;;;66.40;32.05;;;;;;;;;;5065331;28;20526;-87
2023/09/17 00:22:56;;;;;;;64.47;32.10;;;;;;;;;;5075107;28;20376;-87
2023/09/17 00:25:21;;;;;;;63.95;33.15;;;;;;;;;;5075025;28;20016;-87
2023/09/17 00:27:46;;;;;;;62.40;30.33;;;;;;;;;;5074878;28;20043;-87
2023/09/17 00:30:12;;;;;;;63.15;32.17;;;;;;;;;;5075266;28;20023;-87
2023/09/17 00:32:37;;;;;;;78.22;31.80;;;;;;;;;;5076678;28;20095;-88
2023/09/17 00:35:05;;;;;;;59.72;28.77;;;;;;;;;;5074027;28;20032;-88
2023/09/17 00:37:31;;;;;;;62.08;30.90;;;;;;;;;;5075050;28;20044;-87
2023/09/17 00:39:59;;;;;;;70.20;34.30;;;;;;;;;;5074986;28;20021;-87
2023/09/17 00:42:24;;;;;;;70.63;34.15;;;;;;;;;;5076269;28;20025;-87
2023/09/17 00:44:50;;;;;;;63.35;31.38;;;;;;;;;;5074107;28;20110;-87
2023/09/17 00:47:15;;;;;;;69.32;31.33;;;;;;;;;;5061256;28;20074;-87
2023/09/17 00:49:41;;;;;;;62.55;31.13;;;;;;;;;;5074752;28;20044;-87
2023/09/17 00:52:12;;;;;;;71.50;32.53;;;;;;;;;;5056037;28;20071;-88
2023/09/17 00:54:37;;;;;;;68.03;30.03;;;;;;;;;;5065817;28;20032;-88
2023/09/17 00:57:03;;;;;;;71.53;32.40;;;;;;;;;;5074635;28;20257;-87
2023/09/17 00:59:28;;;;;;;58.75;28.15;;;;;;;;;;5074935;28;20434;-87
2023/09/17 01:01:53;;;;;;;63.75;30.73;;;;;;;;;;5073764;28;20017;-88
2023/09/17 01:04:19;;;;;;;59.47;28.38;;;;;;;;;;5071495;28;20024;-87
2023/09/17 01:06:46;;;;;;;50.40;25.48;;;;;;;;;;5074482;28;20051;-87
2023/09/17 01:09:12;;;;;;;59.55;27.38;;;;;;;;;;5060274;28;20016;-88
2023/09/17 01:11:37;;;;;;;65.40;30.08;;;;;;;;;;5070170;28;20081;-88
2023/09/17 01:14:15;;;;;;;51.10;26.73;;;;;;;;;;5074647;28;20375;-88
2023/09/17 01:16:41;;;;;;;60.42;29.75;;;;;;;;;;5073662;28;20129;-88
2023/09/17 01:19:14;;;;;;;57.60;30.00;;;;;;;;;;5059223;28;20013;-87
2023/09/17 01:21:41;;;;;;;58.97;29.35;;;;;;;;;;5065664;28;20081;-88
2023/09/17 01:24:26;;;;;;;59.45;29.77;;;;;;;;;;5054547;28;20031;-88
2023/09/17 01:27:04;;;;;;;54.78;28.60;;;;;;;;;;5070269;28;20090;-87
2023/09/17 01:29:37;;;;;;;54.20;30.55;;;;;;;;;;5070982;28;20040;-87
2023/09/17 01:32:04;;;;;;;61.28;29.98;;;;;;;;;;5074852;28;20407;-87
2023/09/17 01:34:30;;;;;;;58.83;30.08;;;;;;;;;;5073667;28;20050;-87
2023/09/17 01:36:57;;;;;;;55.60;28.92;;;;;;;;;;5073869;28;20021;-87
2023/09/17 01:39:27;;;;;;;47.20;26.70;;;;;;;;;;5073158;28;20440;-87
2023/09/17 01:41:53;;;;;;;47.88;25.65;;;;;;;;;;5060436;28;20547;-87
2023/09/17 01:44:19;;;;;;;49.15;25.17;;;;;;;;;;5072459;28;20063;-87
2023/09/17 01:46:45;;;;;;;57.58;27.27;;;;;;;;;;5073448;28;20444;-87
2023/09/17 01:49:12;;;;;;;59.50;28.60;;;;;;;;;;5061829;28;20020;-87
2023/09/17 01:51:40;;;;;;;65.50;31.42;;;;;;;;;;5070435;28;20456;-87
2023/09/17 01:54:05;;;;;;;58.85;30.15;;;;;;;;;;5072955;28;20103;-88
2023/09/17 01:56:34;;;;;;;57.17;28.65;;;;;;;;;;5071537;28;20060;-86
2023/09/17 01:59:00;;;;;;;66.18;31.20;;;;;;;;;;5062399;28;20066;-87
2023/09/17 02:01:25;;;;;;;63.53;28.70;;;;;;;;;;5072550;28;20033;-87
2023/09/17 02:03:50;;;;;;;60.88;32.15;;;;;;;;;;5072761;28;20020;-87
2023/09/17 02:06:16;;;;;;;57.40;29.13;;;;;;;;;;5072560;28;20020;-87
2023/09/17 02:08:41;;;;;;;51.13;26.67;;;;;;;;;;5074162;28;20085;-87
2023/09/17 02:11:06;;;;;;;54.70;26.25;;;;;;;;;;5071783;28;20021;-87
2023/09/17 02:13:34;;;;;;;56.40;29.02;;;;;;;;;;5072139;28;20116;-87
2023/09/17 02:16:01;;;;;;;52.60;27.38;;;;;;;;;;5073195;28;20016;-87
2023/09/17 02:18:26;;;;;;;59.38;29.65;;;;;;;;;;5068770;28;20032;-87
2023/09/17 02:20:52;;;;;;;57.00;29.70;;;;;;;;;;5073046;28;20028;-87
2023/09/17 02:23:17;;;;;;;54.40;28.23;;;;;;;;;;5072749;28;20031;-87
2023/09/17 02:25:42;;;;;;;57.50;28.08;;;;;;;;;;5074033;28;20060;-86
2023/09/17 02:28:07;;;;;;;60.17;29.67;;;;;;;;;;5073192;28;20112;-87
2023/09/17 02:30:33;;;;;;;48.90;26.63;;;;;;;;;;5062026;28;20545;-87
2023/09/17 02:32:58;;;;;;;57.70;30.38;;;;;;;;;;5071702;28;20009;-87
2023/09/17 02:35:31;;;;;;;62.20;27.48;;;;;;;;;;5072538;28;20027;-87
2023/09/17 02:37:56;;;;;;;53.33;26.55;;;;;;;;;;5058202;28;20021;-87
2023/09/17 02:40:23;;;;;;;56.75;29.10;;;;;;;;;;5068146;28;20027;-87
2023/09/17 02:42:48;;;;;;;51.15;28.20;;;;;;;;;;5053230;28;20083;-87
2023/09/17 02:45:14;;;;;;;56.10;28.40;;;;;;;;;;5073826;28;20025;-87
2023/09/17 02:47:40;;;;;;;51.25;25.90;;;;;;;;;;5072099;28;20024;-87
2023/09/17 02:50:05;;;;;;;49.17;25.08;;;;;;;;;;5072357;28;20099;-87
2023/09/17 02:52:34;;;;;;;53.20;27.60;;;;;;;;;;5072480;28;20036;-87
2023/09/17 02:55:04;;;;;;;48.50;26.08;;;;;;;;;;5072070;28;20588;-87
2023/09/17 02:57:30;;;;;;;49.15;26.63;;;;;;;;;;5071552;28;20092;-87
2023/09/17 02:59:55;;;;;;;53.13;27.35;;;;;;;;;;5073121;28;20052;-87
2023/09/17 03:02:20;;;;;;;59.47;30.35;;;;;;;;;;5071896;28;20025;-87
2023/09/17 03:04:45;;;;;;;58.03;28.88;;;;;;;;;;5071967;28;20024;-86
2023/09/17 03:07:11;;;;;;;64.35;30.55;;;;;;;;;;5057480;28;20027;-86
2023/09/17 03:09:38;;;;;;;57.88;29.98;;;;;;;;;;5071954;28;20108;-87
2023/09/17 03:12:03;;;;;;;53.40;28.33;;;;;;;;;;5071758;28;20020;-87
2023/09/17 03:14:28;;;;;;;61.70;29.25;;;;;;;;;;5071151;28;20055;-87
2023/09/17 03:16:55;;;;;;;62.20;28.90;;;;;;;;;;5071684;28;20078;-88
2023/09/17 03:19:23;;;;;;;56.92;29.88;;;;;;;;;;5072168;28;20023;-87
2023/09/17 03:21:48;;;;;;;62.28;31.92;;;;;;;;;;5071891;28;20021;-87
2023/09/17 03:24:15;;;;;;;60.20;30.08;;;;;;;;;;5072459;28;20020;-87
2023/09/17 03:26:41;;;;;;;58.03;29.88;;;;;;;;;;5075569;28;20131;-86
2023/09/17 03:29:10;;;;;;;54.85;29.65;;;;;;;;;;5077096;28;20483;-87
2023/09/17 03:31:36;;;;;;;54.30;28.83;;;;;;;;;;5063710;28;20029;-86
2023/09/17 03:34:03;;;;;;;62.22;31.73;;;;;;;;;;5076402;28;20046;-87
2023/09/17 03:36:28;;;;;;;69.63;33.63;;;;;;;;;;5076093;28;20027;-87
2023/09/17 03:38:53;;;;;;;61.47;31.20;;;;;;;;;;5075953;28;20024;-87
2023/09/17 03:41:18;;;;;;;59.70;30.88;;;;;;;;;;5075706;28;20016;-87
2023/09/17 03:43:45;;;;;;;57.63;31.10;;;;;;;;;;5076817;28;20062;-87
2023/09/17 03:46:10;;;;;;;58.42;31.58;;;;;;;;;;5076660;28;20024;-87
2023/09/17 03:48:36;;;;;;;65.75;32.30;;;;;;;;;;5070555;28;20032;-87
2023/09/17 03:51:01;;;;;;;63.35;31.33;;;;;;;;;;5071722;28;20104;-87
2023/09/17 03:53:27;;;;;;;56.30;29.10;;;;;;;;;;5076720;28;20019;-87
2023/09/17 03:55:52;;;;;;;65.72;31.33;;;;;;;;;;5066963;28;20025;-87
2023/09/17 03:58:18;;;;;;;62.45;31.58;;;;;;;;;;5058540;28;20047;-87
2023/09/17 04:00:44;;;;;;;62.55;29.80;;;;;;;;;;5076661;28;20096;-87
2023/09/17 04:03:09;;;;;;;57.10;30.08;;;;;;;;;;5061282;28;20493;-87
2023/09/17 04:05:34;;;;;;;55.08;29.35;;;;;;;;;;5075955;28;20078;-87
2023/09/17 04:08:00;;;;;;;63.05;32.13;;;;;;;;;;5066100;28;20021;-87
2023/09/17 04:10:26;;;;;;;62.85;29.33;;;;;;;;;;5062627;28;20095;-87
2023/09/17 04:12:51;;;;;;;55.28;29.73;;;;;;;;;;5075914;28;20456;-87
2023/09/17 04:15:18;;;;;;;60.25;30.63;;;;;;;;;;5075585;28;20107;-87
2023/09/17 04:17:44;;;;;;;62.00;31.70;;;;;;;;;;5075584;28;20024;-87
2023/09/17 04:20:18;;;;;;;61.85;30.52;;;;;;;;;;5075634;28;20024;-87
2023/09/17 04:22:43;;;;;;;65.18;30.92;;;;;;;;;;5076681;28;20055;-87
2023/09/17 04:25:09;;;;;;;65.40;31.70;;;;;;;;;;5075655;28;20112;-86
2023/09/17 04:27:36;;;;;;;56.17;29.88;;;;;;;;;;5062789;28;20025;-87
2023/09/17 04:30:03;;;;;;;52.70;27.65;;;;;;;;;;5075313;28;20099;-87
2023/09/17 04:32:29;;;;;;;57.63;28.20;;;;;;;;;;5074518;28;20340;-87
2023/09/17 04:34:55;;;;;;;63.75;29.48;;;;;;;;;;5075101;28;20016;-87
2023/09/17 04:37:20;;;;;;;59.08;28.50;;;;;;;;;;5073943;28;20116;-86
2023/09/17 04:39:46;;;;;;;61.30;30.30;;;;;;;;;;5057151;28;20012;-87
2023/09/17 04:42:11;;;;;;;56.08;30.20;;;;;;;;;;5064012;28;20416;-87
2023/09/17 04:44:36;;;;;;;58.95;30.27;;;;;;;;;;5068872;28;20488;-87
2023/09/17 04:47:06;;;;;;;54.85;29.23;;;;;;;;;;5054672;28;20471;-86
2023/09/17 04:49:32;;;;;;;53.47;28.45;;;;;;;;;;5054584;28;20025;-87
2023/09/17 04:51:57;;;;;;;53.72;28.17;;;;;;;;;;5074320;28;20032;-87
2023/09/17 04:54:23;;;;;;;54.33;26.55;;;;;;;;;;5075368;28;20017;-87
2023/09/17 04:56:49;;;;;;;56.70;28.50;;;;;;;;;;5075924;28;20008;-87
2023/09/17 04:59:14;;;;;;;52.13;26.77;;;;;;;;;;5074631;28;20028;-87
2023/09/17 05:01:39;;;;;;;55.83;27.90;;;;;;;;;;5074917;28;20041;-87
2023/09/17 05:04:05;;;;;;;55.75;28.55;;;;;;;;;;5068094;28;20013;-87
2023/09/17 05:06:30;;;;;;;56.03;27.20;;;;;;;;;;5068685;28;20513;-85
2023/09/17 05:08:58;;;;;;;63.65;31.15;;;;;;;;;;5060853;28;20058;-86
2023/09/17 05:11:23;;;;;;;59.15;29.77;;;;;;;;;;5074467;28;20031;-86
2023/09/17 05:13:49;;;;;;;53.13;26.45;;;;;;;;;;5059783;28;20013;-87
2023/09/17 05:16:15;;;;;;;56.42;28.52;;;;;;;;;;5064645;28;20504;-87
2023/09/17 05:18:43;;;;;;;56.35;29.27;;;;;;;;;;5069492;28;20169;-87
2023/09/17 05:21:09;;;;;;;58.22;29.42;;;;;;;;;;5075293;28;20024;-86
2023/09/17 05:23:34;;;;;;;53.35;28.15;;;;;;;;;;5063768;28;20021;-87
2023/09/17 05:26:00;;;;;;;51.15;26.63;;;;;;;;;;5070249;28;20452;-87
2023/09/17 05:28:25;;;;;;;53.17;27.55;;;;;;;;;;5065664;28;20098;-87
2023/09/17 05:30:52;;;;;;;53.97;26.80;;;;;;;;;;5068243;28;20124;-86
2023/09/17 05:33:18;;;;;;;47.05;26.35;;;;;;;;;;5073804;28;20109;-87
2023/09/17 05:35:43;;;;;;;45.60;24.45;;;;;;;;;;5073415;28;20063;-87
2023/09/17 05:38:11;;;;;;;46.78;24.80;;;;;;;;;;5074876;28;20052;-87
2023/09/17 05:40:37;;;;;;;45.05;25.52;;;;;;;;;;5068465;28;20032;-87
2023/09/17 05:43:02;;;;;;;49.53;26.55;;;;;;;;;;5103240;28;20029;-87
2023/09/17 05:45:27;;;;;;;48.47;26.45;;;;;;;;;;5072719;28;20035;-87
2023/09/17 05:47:53;;;;;;;56.88;29.90;;;;;;;;;;5072563;28;20108;-87
2023/09/17 05:50:20;;;;;;;53.90;28.48;;;;;;;;;;5073261;28;20024;-87
2023/09/17 05:52:46;;;;;;;59.20;29.77;;;;;;;;;;5061824;28;20013;-87
2023/09/17 05:55:11;;;;;;;52.30;27.83;;;;;;;;;;5071884;28;20021;-87
2023/09/17 05:57:36;;;;;;;53.55;28.23;;;;;;;;;;5074322;28;20063;-87
2023/09/17 06:00:03;;;;;;;51.60;27.98;;;;;;;;;;5073234;28;20020;-87
2023/09/17 06:02:29;;;;;;;55.17;29.67;;;;;;;;;;5071816;28;20108;-87
2023/09/17 06:04:54;;;;;;;69.40;32.55;;;;;;;;;;5060270;28;20082;-87
2023/09/17 06:07:23;;;;;;;67.00;32.30;;;;;;;;;;5067687;28;20476;-87
2023/09/17 06:09:48;;;;;;;63.78;31.35;;;;;;;;;;5065157;28;20392;-87
2023/09/17 06:12:15;;;;;;;78.28;35.15;;;;;;;;;;5072489;28;20021;-86
2023/09/17 06:14:40;;;;;;;77.45;33.83;;;;;;;;;;5073218;28;20024;-87
2023/09/17 06:17:06;;;;;;;82.35;35.45;;;;;;;;;;5062040;28;20032;-87
2023/09/17 06:19:33;;;;;;;65.10;32.45;;;;;;;;;;5059038;28;20024;-87
2023/09/17 06:21:58;;;;;;;61.58;30.80;;;;;;;;;;5073807;28;20028;-87
2023/09/17 06:24:27;;;;;;;59.53;30.67;;;;;;;;;;5059848;28;20380;-87
2023/09/17 06:26:52;;;;;;;63.53;31.02;;;;;;;;;;5063551;28;20029;-87
2023/09/17 06:29:17;;;;;;;60.05;30.45;;;;;;;;;;5068214;28;20024;-87
2023/09/17 06:31:43;;;;;;;72.65;32.22;;;;;;;;;;5066386;28;20023;-87
2023/09/17 06:34:09;;;;;;;69.60;30.80;;;;;;;;;;5060137;28;20380;-86
2023/09/17 06:36:34;;;;;;;66.57;30.58;;;;;;;;;;5073215;28;20115;-87
2023/09/17 06:39:00;;;;;;;68.38;30.42;;;;;;;;;;5072254;28;20016;-87
2023/09/17 06:41:25;;;;;;;71.03;31.42;;;;;;;;;;5071987;28;20021;-87
2023/09/17 06:43:52;;;;;;;65.60;31.58;;;;;;;;;;5072087;28;20020;-87
2023/09/17 06:46:18;;;;;;;63.92;31.13;;;;;;;;;;5071592;28;20024;-87
2023/09/17 06:48:44;;;;;;;75.20;31.38;;;;;;;;;;5071762;28;20019;-87
2023/09/17 06:51:09;;;;;;;65.47;29.52;;;;;;;;;;5069816;28;20075;-87
2023/09/17 06:53:35;;;;;;;78.25;32.70;;;;;;;;;;5058726;28;20017;-87
2023/09/17 06:56:00;;;;;;;75.20;31.95;;;;;;;;;;5071906;28;20028;-87
2023/09/17 06:58:25;;;;;;;73.30;30.10;;;;;;;;;;5072175;28;20013;-87
2023/09/17 07:00:51;;;;;;;71.70;31.85;;;;;;;;;;5072139;28;20119;-87
2023/09/17 07:03:16;;;;;;;73.07;30.08;;;;;;;;;;5071290;28;20085;-87
2023/09/17 07:05:41;;;;;;;50.85;23.52;;;;;;;;;;5072000;28;20016;-87
2023/09/17 07:08:07;;;;;;;59.53;25.42;;;;;;;;;;5073508;28;20020;-87
2023/09/17 07:10:32;;;;;;;69.22;28.88;;;;;;;;;;5059084;28;20016;-87
2023/09/17 07:12:58;;;;;;;61.65;27.40;;;;;;;;;;5071254;28;20047;-87
2023/09/17 07:15:25;;;;;;;67.50;27.92;;;;;;;;;;5071690;28;20020;-87
2023/09/17 07:17:51;;;;;;;61.25;26.65;;;;;;;;;;5062407;28;20498;-87
2023/09/17 07:20:16;;;;;;;51.10;24.35;;;;;;;;;;5063027;28;20099;-87
2023/09/17 07:22:41;;;;;;;57.78;26.25;;;;;;;;;;5062064;28;20028;-87
2023/09/17 07:25:07;;;;;;;59.03;25.45;;;;;;;;;;5054090;28;20132;-87
2023/09/17 07:27:32;;;;;;;63.83;26.95;;;;;;;;;;5064250;28;20033;-87
2023/09/17 07:29:57;;;;;;;54.50;24.27;;;;;;;;;;5072304;28;20023;-87
2023/09/17 07:32:27;;;;;;;58.55;25.15;;;;;;;;;;5065198;28;20028;-87
2023/09/17 07:34:52;;;;;;;61.08;23.92;;;;;;;;;;5072140;28;20032;-87
2023/09/17 07:37:20;;;;;;;51.55;22.15;;;;;;;;;;5072086;28;20028;-87
2023/09/17 07:39:46;;;;;;;55.55;23.48;;;;;;;;;;5068423;28;20059;-87
2023/09/17 07:42:12;;;;;;;52.80;24.25;;;;;;;;;;5066712;28;20040;-87
2023/09/17 07:44:38;;;;;;;52.25;22.27;;;;;;;;;;5071967;28;20021;-87
2023/09/17 07:47:04;;;;;;;51.40;22.77;;;;;;;;;;5065437;28;20388;-87
2023/09/17 07:49:29;;;;;;;50.13;22.38;;;;;;;;;;5065490;28;20017;-87
2023/09/17 07:51:55;;;;;;;49.63;21.17;;;;;;;;;;5058288;28;20043;-87
2023/09/17 07:54:23;;;;;;;43.47;19.67;;;;;;;;;;5072132;28;20019;-87
2023/09/17 07:56:48;;;;;;;45.28;19.30;;;;;;;;;;5055245;28;20357;-87
2023/09/17 07:59:14;;;;;;;47.60;19.35;;;;;;;;;;5051406;28;20028;-87
2023/09/17 08:01:39;;;;;;;43.10;18.15;;;;;;;;;;5066797;28;20041;-87
2023/09/17 08:04:04;;;;;;;44.67;18.40;;;;;;;;;;5071755;28;20025;-87
2023/09/17 08:06:34;;;;;;;39.90;18.00;;;;;;;;;;5071763;28;20077;-87
2023/09/17 08:09:02;;;;;;;47.03;18.85;;;;;;;;;;5052655;28;20465;-88
2023/09/17 08:11:29;;;;;;;44.65;17.83;;;;;;;;;;5056920;28;20360;-88
2023/09/17 08:13:54;;;;;;;39.40;17.20;;;;;;;;;;5073586;28;20012;-87
2023/09/17 08:16:20;;;;;;;42.97;18.73;;;;;;;;;;5064632;28;20028;-88
2023/09/17 08:18:46;;;;;;;39.53;18.23;;;;;;;;;;5072735;28;20028;-87
2023/09/17 08:21:12;;;;;;;49.67;18.98;;;;;;;;;;5069484;28;20125;-87
2023/09/17 08:23:37;;;;;;;45.05;18.88;;;;;;;;;;5065868;28;20423;-87
2023/09/17 08:26:05;;;;;;;40.60;17.80;;;;;;;;;;5074322;28;20128;-87
2023/09/17 08:28:30;;;;;;;46.42;17.92;;;;;;;;;;5074855;28;20070;-87
2023/09/17 08:30:55;;;;;;;43.95;18.20;;;;;;;;;;5062165;28;20028;-87
2023/09/17 08:33:21;;;;;;;48.30;18.50;;;;;;;;;;5074603;28;20535;-87
2023/09/17 08:35:46;;;;;;;45.47;18.08;;;;;;;;;;5074837;28;20035;-86
2023/09/17 08:38:11;;;;;;;45.03;17.83;;;;;;;;;;5074452;28;20040;-88
2023/09/17 08:40:38;;;;;;;46.53;18.48;;;;;;;;;;5074377;28;20029;-87
2023/09/17 08:43:04;;;;;;;39.75;17.65;;;;;;;;;;5088430;28;20614;-87
2023/09/17 08:45:30;;;;;;;37.85;16.67;;;;;;;;;;5063369;28;20032;-87
2023/09/17 08:47:58;;;;;;;42.08;18.00;;;;;;;;;;5060208;28;20112;-87
2023/09/17 08:50:24;;;;;;;42.75;17.95;;;;;;;;;;5075055;28;20013;-87
2023/09/17 08:52:53;;;;;;;37.83;16.25;;;;;;;;;;5070108;28;20055;-87
2023/09/17 08:55:19;;;;;;;36.47;16.73;;;;;;;;;;5060746;28;20024;-87
2023/09/17 08:57:46;;;;;;;31.92;15.48;;;;;;;;;;5063110;28;20039;-87
2023/09/17 09:00:15;;;;;;;36.45;16.58;;;;;;;;;;5069302;28;20021;-87
2023/09/17 09:02:44;;;;;;;38.95;16.88;;;;;;;;;;5071810;28;20024;-87
2023/09/17 09:05:11;;;;;;;34.10;14.48;;;;;;;;;;5074116;28;20435;-87
2023/09/17 09:07:36;;;;;;;32.63;13.23;;;;;;;;;;5076928;28;20023;-87
2023/09/17 09:10:03;;;;;;;33.47;15.38;;;;;;;;;;5074037;28;20535;-87
2023/09/17 09:12:32;;;;;;;34.17;15.27;;;;;;;;;;5075260;28;20645;-87
2023/09/17 09:14:57;;;;;;;29.63;13.68;;;;;;;;;;5076982;28;20024;-87
2023/09/17 09:17:23;;;;;;;31.10;15.77;;;;;;;;;;5061287;28;20383;-87
2023/09/17 09:19:48;;;;;;;31.40;13.98;;;;;;;;;;5075243;28;20058;-87
2023/09/17 09:22:13;;;;;;;30.42;13.30;;;;;;;;;;5061125;28;20048;-87
2023/09/17 09:24:46;;;;;;;36.17;14.57;;;;;;;;;;5062775;28;20055;-87
2023/09/17 09:27:11;;;;;;;30.67;10.70;;;;;;;;;;5061968;28;20044;-88
2023/09/17 09:29:37;;;;;;;25.83;10.77;;;;;;;;;;5057657;28;20008;-87
2023/09/17 09:32:05;;;;;;;32.20;13.18;;;;;;;;;;5067987;28;20016;-88
2023/09/17 09:34:30;;;;;;;21.48;11.43;;;;;;;;;;5071219;28;20020;-87
2023/09/17 09:36:56;;;;;;;28.83;12.45;;;;;;;;;;5053118;28;20023;-87
2023/09/17 09:39:22;;;;;;;24.90;11.80;;;;;;;;;;5068801;28;20013;-87
2023/09/17 09:41:48;;;;;;;26.40;13.55;;;;;;;;;;5068773;28;20033;-87
2023/09/17 09:44:13;;;;;;;15.75;8.07;;;;;;;;;;5067670;28;20474;-88
2023/09/17 09:46:38;;;;;;;28.98;10.10;;;;;;;;;;5073438;28;20020;-88
2023/09/17 09:49:04;;;;;;;26.85;13.20;;;;;;;;;;5073505;28;20468;-87
2023/09/17 09:51:31;;;;;;;27.23;12.48;;;;;;;;;;5074739;28;20040;-87
2023/09/17 09:53:56;;;;;;;37.20;14.95;;;;;;;;;;5072683;28;20491;-88
2023/09/17 09:56:27;;;;;;;24.15;12.20;;;;;;;;;;5072722;28;20059;-87
2023/09/17 09:58:53;;;;;;;25.48;10.45;;;;;;;;;;5072763;28;20044;-88
2023/09/17 10:01:19;;;;;;;25.35;11.80;;;;;;;;;;5072757;28;20025;-87
2023/09/17 10:03:44;;;;;;;27.45;11.30;;;;;;;;;;5072482;28;20107;-88
2023/09/17 10:06:12;;;;;;;25.83;11.10;;;;;;;;;;5073100;28;20036;-87
2023/09/17 10:08:40;;;;;;;29.08;11.20;;;;;;;;;;5073010;28;20012;-87
2023/09/17 10:11:09;;;;;;;28.58;11.38;;;;;;;;;;5072012;28;20017;-87
2023/09/17 10:13:34;;;;;;;22.17;11.00;;;;;;;;;;5071864;28;20013;-87
2023/09/17 10:16:01;;;;;;;21.00;10.10;;;;;;;;;;5073984;28;20069;-87
2023/09/17 10:18:30;;;;;;;21.00;9.70;;;;;;;;;;5072750;28;20539;-87
2023/09/17 10:20:56;;;;;;;19.52;10.10;;;;;;;;;;5072396;28;20021;-87
2023/09/17 10:23:22;;;;;;;20.92;10.55;;;;;;;;;;5072175;28;20036;-87
2023/09/17 10:25:48;;;;;;;23.08;11.27;;;;;;;;;;5071778;28;20055;-87
2023/09/17 10:28:15;;;;;;;19.67;8.18;;;;;;;;;;5062679;28;20020;-87
2023/09/17 10:30:45;;;;;;;18.27;8.80;;;;;;;;;;5076231;28;20032;-87
2023/09/17 10:33:11;;;;;;;20.25;9.13;;;;;;;;;;5065808;28;20013;-87
2023/09/17 10:35:38;;;;;;;19.58;9.43;;;;;;;;;;5080510;28;20032;-87
2023/09/17 10:38:06;;;;;;;20.17;9.30;;;;;;;;;;5063906;28;20368;-86
2023/09/17 10:40:33;;;;;;;16.75;9.23;;;;;;;;;;5076654;28;20047;-87
2023/09/17 10:43:02;;;;;;;17.77;9.32;;;;;;;;;;5074877;28;20024;-87
2023/09/17 10:45:33;;;;;;;19.60;9.00;;;;;;;;;;5072135;28;20025;-87
2023/09/17 10:48:01;;;;;;;20.60;9.27;;;;;;;;;;5076340;28;20017;-87
2023/09/17 10:50:29;;;;;;;18.67;9.00;;;;;;;;;;5072777;28;20124;-86
2023/09/17 10:52:54;;;;;;;17.88;7.93;;;;;;;;;;5058341;28;20092;-87
2023/09/17 10:55:21;;;;;;;15.43;8.00;;;;;;;;;;5054693;28;20144;-87
2023/09/17 10:57:49;;;;;;;17.27;8.95;;;;;;;;;;5064432;28;20059;-87
2023/09/17 11:00:17;;;;;;;14.13;7.72;;;;;;;;;;5071816;28;20024;-87
2023/09/17 11:02:48;;;;;;;18.38;8.18;;;;;;;;;;5071897;28;20365;-87
2023/09/17 11:05:16;;;;;;;15.38;7.75;;;;;;;;;;5052139;28;20012;-87
2023/09/17 11:07:44;;;;;;;16.13;8.80;;;;;;;;;;5070557;28;20017;-87
2023/09/17 11:10:16;;;;;;;15.65;8.45;;;;;;;;;;5057477;28;20370;-87
2023/09/17 11:12:42;;;;;;;16.25;7.03;;;;;;;;;;5062128;28;20522;-87
2023/09/17 11:15:08;;;;;;;14.82;8.10;;;;;;;;;;5065305;28;20028;-87
2023/09/17 11:17:34;;;;;;;13.68;6.50;;;;;;;;;;5067806;28;20025;-87
2023/09/17 11:20:00;;;;;;;19.77;8.23;;;;;;;;;;5060771;28;20027;-87
2023/09/17 11:22:27;;;;;;;16.05;7.75;;;;;;;;;;5070313;28;20024;-87
2023/09/17 11:24:52;;;;;;;11.68;6.95;;;;;;;;;;5070667;28;20455;-87
2023/09/17 11:27:18;;;;;;;15.82;8.07;;;;;;;;;;5070275;28;20013;-87
2023/09/17 11:29:45;;;;;;;15.95;7.38;;;;;;;;;;5071642;28;20008;-87
2023/09/17 11:32:11;;;;;;;15.68;7.65;;;;;;;;;;5070640;28;20445;-88
2023/09/17 11:34:38;;;;;;;13.35;7.05;;;;;;;;;;5072415;28;20009;-87
2023/09/17 11:37:07;;;;;;;13.25;6.72;;;;;;;;;;5073074;28;20039;-88
2023/09/17 11:39:34;;;;;;;13.63;7.43;;;;;;;;;;5073369;28;20104;-88
2023/09/17 11:42:05;;;;;;;12.13;7.20;;;;;;;;;;5072327;28;20375;-88
2023/09/17 11:44:34;;;;;;;12.80;6.38;;;;;;;;;;5070456;28;20468;-88
2023/09/17 11:46:59;;;;;;;17.98;7.15;;;;;;;;;;5061624;28;20035;-88
2023/09/17 11:49:25;;;;;;;13.98;7.22;;;;;;;;;;5065493;28;20017;-88
2023/09/17 11:51:52;;;;;;;12.02;6.85;;;;;;;;;;5082772;28;20013;-88
2023/09/17 11:54:25;;;;;;;11.52;6.30;;;;;;;;;;5083881;28;20054;-85
2023/09/17 11:56:55;;;;;;;11.07;6.65;;;;;;;;;;5069906;28;20028;-88
2023/09/17 11:59:21;;;;;;;8.05;4.90;;;;;;;;;;5084924;28;20084;-88
2023/09/17 12:02:22;;;;;;;8.52;5.30;;;;;;;;;;5073626;28;20060;-88
2023/09/17 12:04:43;;;;;;;13.35;6.80;;;;;;;;;;5069121;28;20032;-88
2023/09/17 12:07:12;;;;;;;12.13;5.93;;;;;;;;;;5061233;28;20382;-88
2023/09/17 12:12:04;;;;;;;8.05;4.85;;;;;;;;;;5076206;28;20434;-88
2023/09/17 12:14:31;;;;;;;9.40;5.70;;;;;;;;;;5075877;28;20016;-88
2023/09/17 12:16:56;;;;;;;9.80;4.60;;;;;;;;;;5073086;28;20028;-88
2023/09/17 12:19:22;;;;;;;8.75;5.47;;;;;;;;;;5074133;28;20070;-88
2023/09/17 12:21:49;;;;;;;10.30;4.65;;;;;;;;;;5064703;28;20021;-88
2023/09/17 12:24:18;;;;;;;7.88;4.70;;;;;;;;;;5056661;28;20028;-88
2023/09/17 12:27:08;;;;;;;11.15;5.45;;;;;;;;;;5074972;28;20356;-88
2023/09/17 12:29:37;;;;;;;8.25;5.07;;;;;;;;;;5073955;28;20016;-89
2023/09/17 12:32:08;;;;;;;9.80;5.28;;;;;;;;;;5074805;28;20012;-88
2023/09/17 12:34:34;;;;;;;9.30;5.53;;;;;;;;;;5076431;28;20020;-88
2023/09/17 12:36:59;;;;;;;11.45;5.90;;;;;;;;;;5074794;28;20099;-88
2023/09/17 12:39:24;;;;;;;9.52;5.35;;;;;;;;;;5073738;28;20033;-89
2023/09/17 12:41:50;;;;;;;9.90;5.28;;;;;;;;;;5074628;28;20008;-88
2023/09/17 12:44:15;;;;;;;11.07;5.45;;;;;;;;;;5074260;28;20524;-88
2023/09/17 12:46:41;;;;;;;9.98;5.93;;;;;;;;;;5064144;28;20047;-88
2023/09/17 12:49:07;;;;;;;12.20;6.30;;;;;;;;;;5063704;28;20024;-86
2023/09/17 12:51:32;;;;;;;10.82;5.43;;;;;;;;;;5071155;28;20197;-88
2023/09/17 12:53:58;;;;;;;10.20;5.68;;;;;;;;;;5074123;28;20025;-88
2023/09/17 12:56:26;;;;;;;9.23;5.60;;;;;;;;;;5073395;28;20040;-88
2023/09/17 12:58:54;;;;;;;9.60;6.20;;;;;;;;;;5073411;28;20024;-88
2023/09/17 13:01:37;;;;;;;6.13;4.50;;;;;;;;;;5074956;28;20131;-88
2023/09/17 13:04:04;;;;;;;9.23;5.40;;;;;;;;;;5067319;28;20017;-88
2023/09/17 13:06:32;;;;;;;8.65;5.20;;;;;;;;;;5057952;28;20029;-88
2023/09/17 13:08:58;;;;;;;10.57;5.22;;;;;;;;;;5058687;28;20439;-88
2023/09/17 13:11:29;;;;;;;12.93;6.15;;;;;;;;;;5068854;28;20016;-89
2023/09/17 13:13:56;;;;;;;7.97;4.30;;;;;;;;;;5075340;28;20513;-88
2023/09/17 13:16:24;;;;;;;9.68;5.07;;;;;;;;;;5076406;28;20028;-88
2023/09/17 13:18:50;;;;;;;8.18;5.45;;;;;;;;;;5074793;28;20085;-88
2023/09/17 13:21:20;;;;;;;10.10;5.80;;;;;;;;;;5075375;28;20013;-89
2023/09/17 13:23:45;;;;;;;12.63;6.10;;;;;;;;;;5075399;28;20020;-88
2023/09/17 13:26:10;;;;;;;7.88;5.32;;;;;;;;;;5061504;28;20021;-89
2023/09/17 13:28:36;;;;;;;8.57;5.75;;;;;;;;;;5075213;28;20024;-88
2023/09/17 13:31:03;;;;;;;8.35;5.50;;;;;;;;;;5073903;28;20116;-89
2023/09/17 13:33:30;;;;;;;10.93;5.05;;;;;;;;;;5074566;28;20462;-89
2023/09/17 13:35:55;;;;;;;8.13;4.68;;;;;;;;;;5073759;28;20090;-88
2023/09/17 13:38:21;;;;;;;7.85;4.93;;;;;;;;;;5063828;28;20032;-89
2023/09/17 13:40:46;;;;;;;15.55;6.05;;;;;;;;;;5074475;28;20020;-89
2023/09/17 13:43:12;;;;;;;7.28;5.13;;;;;;;;;;5074041;28;20032;-88
2023/09/17 13:45:37;;;;;;;8.68;5.65;;;;;;;;;;5064545;28;20676;-88
2023/09/17 13:48:03;;;;;;;8.35;5.25;;;;;;;;;;5070784;28;20067;-89
2023/09/17 13:50:30;;;;;;;10.77;5.82;;;;;;;;;;5074057;28;20017;-88
2023/09/17 13:52:56;;;;;;;11.07;5.40;;;;;;;;;;5073026;28;20089;-89
2023/09/17 13:55:21;;;;;;;9.02;5.10;;;;;;;;;;5072743;28;20020;-88
2023/09/17 13:57:48;;;;;;;11.27;5.72;;;;;;;;;;5074597;28;20452;-88
2023/09/17 14:00:14;;;;;;;9.55;5.85;;;;;;;;;;5074009;28;20495;-88
2023/09/17 14:02:55;;;;;;;9.05;5.82;;;;;;;;;;5073018;28;20025;-88
2023/09/17 14:05:20;;;;;;;9.02;5.88;;;;;;;;;;5072305;28;20341;-89
2023/09/17 14:07:45;;;;;;;14.90;5.97;;;;;;;;;;5072711;28;20017;-88
2023/09/17 14:10:11;;;;;;;9.15;6.38;;;;;;;;;;5071900;28;20444;-89
2023/09/17 14:12:44;;;;;;;12.57;6.43;;;;;;;;;;5072918;28;20099;-88
2023/09/17 14:15:10;;;;;;;11.23;6.60;;;;;;;;;;5072234;28;20047;-88
2023/09/17 14:17:36;;;;;;;11.00;6.97;;;;;;;;;;5066581;28;20017;-88
2023/09/17 14:20:01;;;;;;;10.18;5.88;;;;;;;;;;5054476;28;20078;-89